sensor_id;sensor_type;location;lat;lon;timestamp;P1;durP1;ratioP1;P2;durP2;ratioP2
25153;SDS011;47555;51.038;6.280;2023-06-10T00:01:26;9.95;;;9.02;;
25153;SDS011;47555;51.038;6.280;2023-06-10T00:03:52;13.10;;;9.25;;
25153;SDS011;47555;51.038;6.280;2023-06-10T00:06:19;11.00;;;9.68;;
25153;SDS011;47555;51.038;6.280;2023-06-10T00:08:46;11.48;;;8.98;;
25153;SDS011;47555;51.038;6.280;2023-06-10T00:11:12;12.85;;;9.75;;
25153;SDS011;47555;51.038;6.280;2023-06-10T00:13:38;12.18;;;9.55;;
25153;SDS011;47555;51.038;6.280;2023-06-10T00:16:05;11.25;;;9.55;;
25153;SDS011;47555;51.038;6.280;2023-06-10T00:18:31;10.82;;;9.73;;
25153;SDS011;47555;51.038;6.280;2023-06-10T00:20:57;11.90;;;9.77;;
25153;SDS011;47555;51.038;6.280;2023-06-10T00:23:29;10.40;;;9.10;;
25153;SDS011;47555;51.038;6.280;2023-06-10T00:25:56;10.10;;;9.02;;
25153;SDS011;47555;51.038;6.280;2023-06-10T00:28:22;10.82;;;9.25;;
25153;SDS011;47555;51.038;6.280;2023-06-10T00:30:48;11.18;;;8.90;;
25153;SDS011;47555;51.038;6.280;2023-06-10T00:33:14;11.13;;;9.45;;
25153;SDS011;47555;51.038;6.280;2023-06-10T00:35:40;12.85;;;9.18;;
25153;SDS011;47555;51.038;6.280;2023-06-10T00:38:06;11.25;;;8.95;;
25153;SDS011;47555;51.038;6.280;2023-06-10T00:40:33;10.52;;;9.27;;
25153;SDS011;47555;51.038;6.280;2023-06-10T00:42:59;10.88;;;9.25;;
25153;SDS011;47555;51.038;6.280;2023-06-10T00:45:25;9.88;;;8.63;;
25153;SDS011;47555;51.038;6.280;2023-06-10T00:47:51;11.07;;;9.57;;
25153;SDS011;47555;51.038;6.280;2023-06-10T00:50:17;10.80;;;9.63;;
25153;SDS011;47555;51.038;6.280;2023-06-10T00:52:43;12.93;;;9.60;;
25153;SDS011;47555;51.038;6.280;2023-06-10T00:55:11;10.02;;;9.00;;
25153;SDS011;47555;51.038;6.280;2023-06-10T00:57:37;10.82;;;9.73;;
25153;SDS011;47555;51.038;6.280;2023-06-10T01:00:04;11.20;;;9.98;;
25153;SDS011;47555;51.038;6.280;2023-06-10T01:02:33;12.30;;;8.88;;
25153;SDS011;47555;51.038;6.280;2023-06-10T01:04:59;14.45;;;9.77;;
25153;SDS011;47555;51.038;6.280;2023-06-10T01:07:28;12.02;;;10.20;;
25153;SDS011;47555;51.038;6.280;2023-06-10T01:10:09;10.88;;;9.60;;
25153;SDS011;47555;51.038;6.280;2023-06-10T01:12:39;12.60;;;9.60;;
25153;SDS011;47555;51.038;6.280;2023-06-10T01:15:06;13.32;;;9.98;;
25153;SDS011;47555;51.038;6.280;2023-06-10T01:17:36;12.77;;;9.77;;
25153;SDS011;47555;51.038;6.280;2023-06-10T01:20:03;14.15;;;10.68;;
25153;SDS011;47555;51.038;6.280;2023-06-10T01:22:29;13.23;;;10.65;;
25153;SDS011;47555;51.038;6.280;2023-06-10T01:24:57;11.27;;;10.18;;
25153;SDS011;47555;51.038;6.280;2023-06-10T01:27:24;15.40;;;10.80;;
25153;SDS011;47555;51.038;6.280;2023-06-10T01:30:00;12.05;;;9.88;;
25153;SDS011;47555;51.038;6.280;2023-06-10T01:32:34;10.32;;;9.23;;
25153;SDS011;47555;51.038;6.280;2023-06-10T01:35:03;11.02;;;9.70;;
25153;SDS011;47555;51.038;6.280;2023-06-10T01:37:31;11.43;;;9.52;;
25153;SDS011;47555;51.038;6.280;2023-06-10T01:39:58;10.38;;;9.38;;
25153;SDS011;47555;51.038;6.280;2023-06-10T01:42:24;10.45;;;9.45;;
25153;SDS011;47555;51.038;6.280;2023-06-10T01:44:51;13.63;;;10.30;;
25153;SDS011;47555;51.038;6.280;2023-06-10T01:47:16;12.88;;;10.73;;
25153;SDS011;47555;51.038;6.280;2023-06-10T01:49:42;11.05;;;9.85;;
25153;SDS011;47555;51.038;6.280;2023-06-10T01:52:08;11.45;;;10.15;;
25153;SDS011;47555;51.038;6.280;2023-06-10T01:54:34;10.98;;;9.40;;
25153;SDS011;47555;51.038;6.280;2023-06-10T01:57:01;12.40;;;9.45;;
25153;SDS011;47555;51.038;6.280;2023-06-10T01:59:26;12.50;;;10.07;;
25153;SDS011;47555;51.038;6.280;2023-06-10T02:01:52;11.85;;;9.57;;
25153;SDS011;47555;51.038;6.280;2023-06-10T02:04:18;10.90;;;9.25;;
25153;SDS011;47555;51.038;6.280;2023-06-10T02:06:44;11.60;;;10.02;;
25153;SDS011;47555;51.038;6.280;2023-06-10T02:09:10;12.65;;;10.38;;
25153;SDS011;47555;51.038;6.280;2023-06-10T02:11:36;12.60;;;10.30;;
25153;SDS011;47555;51.038;6.280;2023-06-10T02:14:02;11.35;;;9.38;;
25153;SDS011;47555;51.038;6.280;2023-06-10T02:16:28;10.80;;;9.07;;
25153;SDS011;47555;51.038;6.280;2023-06-10T02:18:54;11.27;;;10.00;;
25153;SDS011;47555;51.038;6.280;2023-06-10T02:21:20;12.02;;;10.25;;
25153;SDS011;47555;51.038;6.280;2023-06-10T02:23:46;12.45;;;10.52;;
25153;SDS011;47555;51.038;6.280;2023-06-10T02:26:12;12.13;;;10.70;;
25153;SDS011;47555;51.038;6.280;2023-06-10T02:28:38;11.48;;;10.27;;
25153;SDS011;47555;51.038;6.280;2023-06-10T02:31:07;12.23;;;10.95;;
25153;SDS011;47555;51.038;6.280;2023-06-10T02:33:33;12.50;;;10.70;;
25153;SDS011;47555;51.038;6.280;2023-06-10T02:35:59;11.82;;;10.27;;
25153;SDS011;47555;51.038;6.280;2023-06-10T02:38:25;11.77;;;10.55;;
25153;SDS011;47555;51.038;6.280;2023-06-10T02:40:51;14.30;;;11.48;;
25153;SDS011;47555;51.038;6.280;2023-06-10T02:43:17;15.15;;;11.70;;
25153;SDS011;47555;51.038;6.280;2023-06-10T02:45:43;15.32;;;11.25;;
25153;SDS011;47555;51.038;6.280;2023-06-10T02:48:10;12.90;;;11.18;;
25153;SDS011;47555;51.038;6.280;2023-06-10T02:50:35;14.07;;;10.75;;
25153;SDS011;47555;51.038;6.280;2023-06-10T02:53:03;12.70;;;10.02;;
25153;SDS011;47555;51.038;6.280;2023-06-10T02:55:29;12.80;;;10.98;;
25153;SDS011;47555;51.038;6.280;2023-06-10T02:57:55;13.00;;;11.05;;
25153;SDS011;47555;51.038;6.280;2023-06-10T03:00:21;14.00;;;11.50;;
25153;SDS011;47555;51.038;6.280;2023-06-10T03:02:47;14.00;;;10.75;;
25153;SDS011;47555;51.038;6.280;2023-06-10T03:05:14;12.02;;;10.80;;
25153;SDS011;47555;51.038;6.280;2023-06-10T03:07:40;15.88;;;12.15;;
25153;SDS011;47555;51.038;6.280;2023-06-10T03:10:06;15.90;;;11.73;;
25153;SDS011;47555;51.038;6.280;2023-06-10T03:12:32;15.65;;;12.48;;
25153;SDS011;47555;51.038;6.280;2023-06-10T03:14:58;15.70;;;13.05;;
25153;SDS011;47555;51.038;6.280;2023-06-10T03:17:24;18.90;;;13.43;;
25153;SDS011;47555;51.038;6.280;2023-06-10T03:19:50;16.20;;;13.55;;
25153;SDS011;47555;51.038;6.280;2023-06-10T03:22:17;20.85;;;13.35;;
25153;SDS011;47555;51.038;6.280;2023-06-10T03:24:43;17.08;;;13.23;;
25153;SDS011;47555;51.038;6.280;2023-06-10T03:27:11;19.63;;;13.73;;
25153;SDS011;47555;51.038;6.280;2023-06-10T03:29:38;17.20;;;13.38;;
25153;SDS011;47555;51.038;6.280;2023-06-10T03:32:04;17.15;;;12.88;;
25153;SDS011;47555;51.038;6.280;2023-06-10T03:34:31;15.07;;;12.07;;
25153;SDS011;47555;51.038;6.280;2023-06-10T03:36:57;15.27;;;12.75;;
25153;SDS011;47555;51.038;6.280;2023-06-10T03:39:23;16.13;;;13.02;;
25153;SDS011;47555;51.038;6.280;2023-06-10T03:41:49;15.57;;;11.93;;
25153;SDS011;47555;51.038;6.280;2023-06-10T03:44:15;18.70;;;13.38;;
25153;SDS011;47555;51.038;6.280;2023-06-10T03:46:41;15.23;;;12.50;;
25153;SDS011;47555;51.038;6.280;2023-06-10T03:49:07;13.35;;;11.95;;
25153;SDS011;47555;51.038;6.280;2023-06-10T03:51:34;15.63;;;11.50;;
25153;SDS011;47555;51.038;6.280;2023-06-10T03:54:00;14.80;;;12.15;;
25153;SDS011;47555;51.038;6.280;2023-06-10T03:56:26;16.48;;;13.23;;
25153;SDS011;47555;51.038;6.280;2023-06-10T03:58:53;12.80;;;11.52;;
25153;SDS011;47555;51.038;6.280;2023-06-10T04:01:19;16.95;;;13.90;;
25153;SDS011;47555;51.038;6.280;2023-06-10T04:03:46;15.40;;;12.48;;
25153;SDS011;47555;51.038;6.280;2023-06-10T04:06:13;14.82;;;11.90;;
25153;SDS011;47555;51.038;6.280;2023-06-10T04:08:39;14.90;;;11.52;;
25153;SDS011;47555;51.038;6.280;2023-06-10T04:11:05;16.90;;;12.48;;
25153;SDS011;47555;51.038;6.280;2023-06-10T04:13:31;14.88;;;12.40;;
25153;SDS011;47555;51.038;6.280;2023-06-10T04:15:57;22.40;;;12.10;;
25153;SDS011;47555;51.038;6.280;2023-06-10T04:18:24;16.25;;;12.45;;
25153;SDS011;47555;51.038;6.280;2023-06-10T04:20:50;13.68;;;11.93;;
25153;SDS011;47555;51.038;6.280;2023-06-10T04:23:16;15.90;;;13.52;;
25153;SDS011;47555;51.038;6.280;2023-06-10T04:25:42;14.95;;;12.40;;
25153;SDS011;47555;51.038;6.280;2023-06-10T04:28:08;14.07;;;11.20;;
25153;SDS011;47555;51.038;6.280;2023-06-10T04:30:33;13.52;;;10.95;;
25153;SDS011;47555;51.038;6.280;2023-06-10T04:32:59;13.88;;;12.48;;
25153;SDS011;47555;51.038;6.280;2023-06-10T04:35:25;14.15;;;12.68;;
25153;SDS011;47555;51.038;6.280;2023-06-10T04:37:54;14.10;;;11.32;;
25153;SDS011;47555;51.038;6.280;2023-06-10T04:40:20;15.55;;;13.02;;
25153;SDS011;47555;51.038;6.280;2023-06-10T04:42:46;13.73;;;11.98;;
25153;SDS011;47555;51.038;6.280;2023-06-10T04:45:12;15.43;;;12.52;;
25153;SDS011;47555;51.038;6.280;2023-06-10T04:47:38;15.10;;;12.88;;
25153;SDS011;47555;51.038;6.280;2023-06-10T04:50:03;13.70;;;11.55;;
25153;SDS011;47555;51.038;6.280;2023-06-10T04:52:30;14.38;;;12.85;;
25153;SDS011;47555;51.038;6.280;2023-06-10T04:54:57;16.33;;;11.55;;
25153;SDS011;47555;51.038;6.280;2023-06-10T04:57:23;17.13;;;12.55;;
25153;SDS011;47555;51.038;6.280;2023-06-10T04:59:49;14.32;;;11.30;;
25153;SDS011;47555;51.038;6.280;2023-06-10T05:02:15;13.25;;;11.45;;
25153;SDS011;47555;51.038;6.280;2023-06-10T05:04:41;15.23;;;11.75;;
25153;SDS011;47555;51.038;6.280;2023-06-10T05:07:10;13.73;;;11.77;;
25153;SDS011;47555;51.038;6.280;2023-06-10T05:09:36;14.45;;;12.30;;
25153;SDS011;47555;51.038;6.280;2023-06-10T05:12:03;12.82;;;10.52;;
25153;SDS011;47555;51.038;6.280;2023-06-10T05:14:29;15.80;;;11.70;;
25153;SDS011;47555;51.038;6.280;2023-06-10T05:16:55;13.32;;;11.32;;
25153;SDS011;47555;51.038;6.280;2023-06-10T05:19:20;11.98;;;10.73;;
25153;SDS011;47555;51.038;6.280;2023-06-10T05:21:46;12.32;;;10.90;;
25153;SDS011;47555;51.038;6.280;2023-06-10T05:24:13;12.63;;;11.18;;
25153;SDS011;47555;51.038;6.280;2023-06-10T05:26:38;15.25;;;11.57;;
25153;SDS011;47555;51.038;6.280;2023-06-10T05:29:04;12.70;;;11.05;;
25153;SDS011;47555;51.038;6.280;2023-06-10T05:31:30;14.73;;;11.80;;
25153;SDS011;47555;51.038;6.280;2023-06-10T05:33:56;13.02;;;10.85;;
25153;SDS011;47555;51.038;6.280;2023-06-10T05:36:22;14.13;;;10.88;;
25153;SDS011;47555;51.038;6.280;2023-06-10T05:38:50;14.15;;;11.25;;
25153;SDS011;47555;51.038;6.280;2023-06-10T05:41:16;15.80;;;11.40;;
25153;SDS011;47555;51.038;6.280;2023-06-10T05:43:42;13.73;;;10.70;;
25153;SDS011;47555;51.038;6.280;2023-06-10T05:46:07;12.95;;;10.88;;
25153;SDS011;47555;51.038;6.280;2023-06-10T05:48:33;11.90;;;10.48;;
25153;SDS011;47555;51.038;6.280;2023-06-10T05:50:59;11.63;;;10.43;;
25153;SDS011;47555;51.038;6.280;2023-06-10T05:53:25;16.33;;;10.30;;
25153;SDS011;47555;51.038;6.280;2023-06-10T05:55:51;15.23;;;10.57;;
25153;SDS011;47555;51.038;6.280;2023-06-10T05:58:19;12.93;;;10.23;;
25153;SDS011;47555;51.038;6.280;2023-06-10T06:00:45;13.73;;;10.38;;
25153;SDS011;47555;51.038;6.280;2023-06-10T06:03:11;15.85;;;10.82;;
25153;SDS011;47555;51.038;6.280;2023-06-10T06:05:37;12.25;;;10.52;;
25153;SDS011;47555;51.038;6.280;2023-06-10T06:08:06;11.23;;;10.10;;
25153;SDS011;47555;51.038;6.280;2023-06-10T06:10:33;10.77;;;9.30;;
25153;SDS011;47555;51.038;6.280;2023-06-10T06:12:59;11.57;;;10.38;;
25153;SDS011;47555;51.038;6.280;2023-06-10T06:15:25;14.90;;;10.13;;
25153;SDS011;47555;51.038;6.280;2023-06-10T06:17:52;13.48;;;10.82;;
25153;SDS011;47555;51.038;6.280;2023-06-10T06:20:18;13.45;;;10.05;;
25153;SDS011;47555;51.038;6.280;2023-06-10T06:22:44;14.55;;;10.93;;
25153;SDS011;47555;51.038;6.280;2023-06-10T06:25:10;12.63;;;9.40;;
25153;SDS011;47555;51.038;6.280;2023-06-10T06:27:36;10.88;;;8.85;;
25153;SDS011;47555;51.038;6.280;2023-06-10T06:30:02;13.43;;;10.00;;
25153;SDS011;47555;51.038;6.280;2023-06-10T06:32:28;13.23;;;9.80;;
25153;SDS011;47555;51.038;6.280;2023-06-10T06:34:54;13.57;;;9.43;;
25153;SDS011;47555;51.038;6.280;2023-06-10T06:37:23;15.10;;;9.80;;
25153;SDS011;47555;51.038;6.280;2023-06-10T06:39:50;11.77;;;9.15;;
25153;SDS011;47555;51.038;6.280;2023-06-10T06:42:16;13.52;;;9.68;;
25153;SDS011;47555;51.038;6.280;2023-06-10T06:44:42;14.55;;;9.15;;
25153;SDS011;47555;51.038;6.280;2023-06-10T06:47:08;11.98;;;8.65;;
25153;SDS011;47555;51.038;6.280;2023-06-10T06:49:33;14.70;;;9.40;;
25153;SDS011;47555;51.038;6.280;2023-06-10T06:51:59;12.98;;;9.52;;
25153;SDS011;47555;51.038;6.280;2023-06-10T06:54:25;12.05;;;9.48;;
25153;SDS011;47555;51.038;6.280;2023-06-10T06:56:51;17.35;;;9.55;;
25153;SDS011;47555;51.038;6.280;2023-06-10T06:59:17;10.93;;;9.20;;
25153;SDS011;47555;51.038;6.280;2023-06-10T07:01:44;14.32;;;9.38;;
25153;SDS011;47555;51.038;6.280;2023-06-10T07:04:10;10.05;;;9.02;;
25153;SDS011;47555;51.038;6.280;2023-06-10T07:06:36;14.50;;;9.20;;
25153;SDS011;47555;51.038;6.280;2023-06-10T07:09:03;12.68;;;9.50;;
25153;SDS011;47555;51.038;6.280;2023-06-10T07:11:29;15.05;;;9.38;;
25153;SDS011;47555;51.038;6.280;2023-06-10T07:13:55;12.63;;;8.82;;
25153;SDS011;47555;51.038;6.280;2023-06-10T07:16:21;13.73;;;9.55;;
25153;SDS011;47555;51.038;6.280;2023-06-10T07:18:47;11.48;;;8.73;;
25153;SDS011;47555;51.038;6.280;2023-06-10T07:21:13;11.98;;;9.07;;
25153;SDS011;47555;51.038;6.280;2023-06-10T07:23:42;16.65;;;9.35;;
25153;SDS011;47555;51.038;6.280;2023-06-10T07:26:08;12.93;;;9.20;;
25153;SDS011;47555;51.038;6.280;2023-06-10T07:28:38;11.20;;;8.43;;
25153;SDS011;47555;51.038;6.280;2023-06-10T07:31:05;12.70;;;8.82;;
25153;SDS011;47555;51.038;6.280;2023-06-10T07:33:31;15.02;;;9.40;;
25153;SDS011;47555;51.038;6.280;2023-06-10T07:35:57;12.30;;;8.77;;
25153;SDS011;47555;51.038;6.280;2023-06-10T07:38:22;11.40;;;9.18;;
25153;SDS011;47555;51.038;6.280;2023-06-10T07:40:48;10.65;;;8.45;;
25153;SDS011;47555;51.038;6.280;2023-06-10T07:43:14;10.43;;;8.23;;
25153;SDS011;47555;51.038;6.280;2023-06-10T07:45:40;9.07;;;7.68;;
25153;SDS011;47555;51.038;6.280;2023-06-10T07:48:06;9.70;;;7.82;;
25153;SDS011;47555;51.038;6.280;2023-06-10T07:50:33;7.68;;;6.93;;
25153;SDS011;47555;51.038;6.280;2023-06-10T07:52:59;8.48;;;7.45;;
25153;SDS011;47555;51.038;6.280;2023-06-10T07:55:25;9.00;;;7.32;;
25153;SDS011;47555;51.038;6.280;2023-06-10T07:57:51;8.43;;;7.63;;
25153;SDS011;47555;51.038;6.280;2023-06-10T08:00:17;8.32;;;7.07;;
25153;SDS011;47555;51.038;6.280;2023-06-10T08:02:43;9.57;;;7.72;;
25153;SDS011;47555;51.038;6.280;2023-06-10T08:05:09;8.27;;;7.28;;
25153;SDS011;47555;51.038;6.280;2023-06-10T08:07:36;10.15;;;7.97;;
25153;SDS011;47555;51.038;6.280;2023-06-10T08:10:02;9.32;;;7.78;;
25153;SDS011;47555;51.038;6.280;2023-06-10T08:12:29;8.65;;;7.78;;
25153;SDS011;47555;51.038;6.280;2023-06-10T08:14:55;10.80;;;7.88;;
25153;SDS011;47555;51.038;6.280;2023-06-10T08:17:21;8.38;;;7.30;;
25153;SDS011;47555;51.038;6.280;2023-06-10T08:19:47;8.10;;;7.30;;
25153;SDS011;47555;51.038;6.280;2023-06-10T08:22:13;8.15;;;6.90;;
25153;SDS011;47555;51.038;6.280;2023-06-10T08:24:39;9.02;;;7.65;;
25153;SDS011;47555;51.038;6.280;2023-06-10T08:27:05;11.57;;;7.85;;
25153;SDS011;47555;51.038;6.280;2023-06-10T08:29:31;9.70;;;7.53;;
25153;SDS011;47555;51.038;6.280;2023-06-10T08:31:57;8.75;;;7.28;;
25153;SDS011;47555;51.038;6.280;2023-06-10T08:34:23;10.13;;;7.75;;
25153;SDS011;47555;51.038;6.280;2023-06-10T08:36:49;8.27;;;7.47;;
25153;SDS011;47555;51.038;6.280;2023-06-10T08:39:18;10.25;;;8.15;;
25153;SDS011;47555;51.038;6.280;2023-06-10T08:41:44;10.00;;;7.93;;
25153;SDS011;47555;51.038;6.280;2023-06-10T08:44:17;10.75;;;7.35;;
25153;SDS011;47555;51.038;6.280;2023-06-10T08:46:47;11.43;;;7.97;;
25153;SDS011;47555;51.038;6.280;2023-06-10T08:49:15;8.82;;;7.25;;
25153;SDS011;47555;51.038;6.280;2023-06-10T08:51:45;9.32;;;8.02;;
25153;SDS011;47555;51.038;6.280;2023-06-10T08:54:15;8.13;;;7.40;;
25153;SDS011;47555;51.038;6.280;2023-06-10T08:56:44;8.80;;;7.60;;
25153;SDS011;47555;51.038;6.280;2023-06-10T08:59:13;8.50;;;7.55;;
25153;SDS011;47555;51.038;6.280;2023-06-10T09:01:41;9.80;;;7.70;;
25153;SDS011;47555;51.038;6.280;2023-06-10T09:04:07;12.13;;;7.88;;
25153;SDS011;47555;51.038;6.280;2023-06-10T09:06:33;10.32;;;8.13;;
25153;SDS011;47555;51.038;6.280;2023-06-10T09:08:59;9.82;;;7.38;;
25153;SDS011;47555;51.038;6.280;2023-06-10T09:11:25;11.07;;;8.15;;
25153;SDS011;47555;51.038;6.280;2023-06-10T09:13:51;9.07;;;8.20;;
25153;SDS011;47555;51.038;6.280;2023-06-10T09:16:17;10.25;;;8.02;;
25153;SDS011;47555;51.038;6.280;2023-06-10T09:18:43;9.13;;;8.20;;
25153;SDS011;47555;51.038;6.280;2023-06-10T09:21:09;11.95;;;8.77;;
25153;SDS011;47555;51.038;6.280;2023-06-10T09:23:36;11.20;;;8.32;;
25153;SDS011;47555;51.038;6.280;2023-06-10T09:26:02;9.20;;;8.02;;
25153;SDS011;47555;51.038;6.280;2023-06-10T09:28:33;9.32;;;8.10;;
25153;SDS011;47555;51.038;6.280;2023-06-10T09:31:06;9.80;;;8.73;;
25153;SDS011;47555;51.038;6.280;2023-06-10T09:33:32;10.75;;;7.93;;
25153;SDS011;47555;51.038;6.280;2023-06-10T09:35:59;8.93;;;8.02;;
25153;SDS011;47555;51.038;6.280;2023-06-10T09:38:33;9.85;;;8.40;;
25153;SDS011;47555;51.038;6.280;2023-06-10T09:40:59;10.73;;;8.32;;
25153;SDS011;47555;51.038;6.280;2023-06-10T09:43:38;10.25;;;8.02;;
25153;SDS011;47555;51.038;6.280;2023-06-10T09:46:05;10.23;;;8.50;;
25153;SDS011;47555;51.038;6.280;2023-06-10T09:48:34;9.32;;;8.23;;
25153;SDS011;47555;51.038;6.280;2023-06-10T09:51:00;9.75;;;8.73;;
25153;SDS011;47555;51.038;6.280;2023-06-10T09:53:26;9.82;;;8.45;;
25153;SDS011;47555;51.038;6.280;2023-06-10T09:55:52;10.43;;;9.00;;
25153;SDS011;47555;51.038;6.280;2023-06-10T09:58:18;9.35;;;8.30;;
25153;SDS011;47555;51.038;6.280;2023-06-10T10:00:44;9.73;;;8.55;;
25153;SDS011;47555;51.038;6.280;2023-06-10T10:03:21;10.57;;;8.57;;
25153;SDS011;47555;51.038;6.280;2023-06-10T10:05:47;9.73;;;8.93;;
25153;SDS011;47555;51.038;6.280;2023-06-10T10:08:13;10.45;;;9.35;;
25153;SDS011;47555;51.038;6.280;2023-06-10T10:10:39;9.20;;;8.30;;
25153;SDS011;47555;51.038;6.280;2023-06-10T10:13:05;9.93;;;8.82;;
25153;SDS011;47555;51.038;6.280;2023-06-10T10:15:31;10.10;;;8.77;;
25153;SDS011;47555;51.038;6.280;2023-06-10T10:18:07;10.02;;;9.05;;
25153;SDS011;47555;51.038;6.280;2023-06-10T10:20:37;9.63;;;8.60;;
25153;SDS011;47555;51.038;6.280;2023-06-10T10:23:06;10.48;;;8.40;;
25153;SDS011;47555;51.038;6.280;2023-06-10T10:25:43;9.57;;;8.57;;
25153;SDS011;47555;51.038;6.280;2023-06-10T10:28:10;10.52;;;8.52;;
25153;SDS011;47555;51.038;6.280;2023-06-10T10:30:40;11.82;;;8.73;;
25153;SDS011;47555;51.038;6.280;2023-06-10T10:33:06;12.30;;;8.35;;
25153;SDS011;47555;51.038;6.280;2023-06-10T10:35:35;9.75;;;8.75;;
25153;SDS011;47555;51.038;6.280;2023-06-10T10:38:01;11.75;;;8.80;;
25153;SDS011;47555;51.038;6.280;2023-06-10T10:40:28;9.68;;;8.77;;
25153;SDS011;47555;51.038;6.280;2023-06-10T10:42:55;10.75;;;8.63;;
25153;SDS011;47555;51.038;6.280;2023-06-10T10:45:21;11.60;;;9.07;;
25153;SDS011;47555;51.038;6.280;2023-06-10T10:47:51;10.57;;;8.65;;
25153;SDS011;47555;51.038;6.280;2023-06-10T10:50:18;10.65;;;8.60;;
25153;SDS011;47555;51.038;6.280;2023-06-10T10:53:03;11.60;;;8.50;;
25153;SDS011;47555;51.038;6.280;2023-06-10T10:55:30;11.35;;;9.15;;
25153;SDS011;47555;51.038;6.280;2023-06-10T10:58:02;10.30;;;9.13;;
25153;SDS011;47555;51.038;6.280;2023-06-10T11:02:57;11.23;;;9.07;;
25153;SDS011;47555;51.038;6.280;2023-06-10T11:05:36;9.70;;;8.80;;
25153;SDS011;47555;51.038;6.280;2023-06-10T11:08:05;11.10;;;9.27;;
25153;SDS011;47555;51.038;6.280;2023-06-10T11:10:33;10.25;;;9.13;;
25153;SDS011;47555;51.038;6.280;2023-06-10T11:12:59;9.95;;;8.68;;
25153;SDS011;47555;51.038;6.280;2023-06-10T11:15:26;10.82;;;8.45;;
25153;SDS011;47555;51.038;6.280;2023-06-10T11:18:12;9.50;;;8.60;;
25153;SDS011;47555;51.038;6.280;2023-06-10T11:20:57;10.73;;;9.63;;
25153;SDS011;47555;51.038;6.280;2023-06-10T11:28:38;11.55;;;8.82;;
25153;SDS011;47555;51.038;6.280;2023-06-10T11:31:04;10.38;;;9.00;;
25153;SDS011;47555;51.038;6.280;2023-06-10T11:33:30;11.68;;;9.25;;
25153;SDS011;47555;51.038;6.280;2023-06-10T11:35:57;10.23;;;9.25;;
25153;SDS011;47555;51.038;6.280;2023-06-10T11:38:25;10.60;;;9.43;;
25153;SDS011;47555;51.038;6.280;2023-06-10T11:40:52;11.27;;;9.32;;
25153;SDS011;47555;51.038;6.280;2023-06-10T11:43:18;10.95;;;9.13;;
25153;SDS011;47555;51.038;6.280;2023-06-10T11:45:44;12.07;;;9.40;;
25153;SDS011;47555;51.038;6.280;2023-06-10T11:48:10;11.15;;;9.15;;
25153;SDS011;47555;51.038;6.280;2023-06-10T11:50:36;10.57;;;8.68;;
25153;SDS011;47555;51.038;6.280;2023-06-10T11:53:02;9.00;;;8.20;;
25153;SDS011;47555;51.038;6.280;2023-06-10T11:55:44;9.35;;;8.50;;
25153;SDS011;47555;51.038;6.280;2023-06-10T11:58:14;9.30;;;8.40;;
25153;SDS011;47555;51.038;6.280;2023-06-10T12:00:44;11.73;;;9.13;;
25153;SDS011;47555;51.038;6.280;2023-06-10T12:03:10;8.90;;;8.10;;
25153;SDS011;47555;51.038;6.280;2023-06-10T12:05:36;11.00;;;9.13;;
25153;SDS011;47555;51.038;6.280;2023-06-10T12:08:09;9.88;;;8.90;;
25153;SDS011;47555;51.038;6.280;2023-06-10T12:10:39;9.85;;;8.85;;
25153;SDS011;47555;51.038;6.280;2023-06-10T12:13:06;11.63;;;9.18;;
25153;SDS011;47555;51.038;6.280;2023-06-10T12:15:32;9.80;;;8.88;;
25153;SDS011;47555;51.038;6.280;2023-06-10T12:17:58;13.02;;;9.75;;
25153;SDS011;47555;51.038;6.280;2023-06-10T12:20:25;9.70;;;8.90;;
25153;SDS011;47555;51.038;6.280;2023-06-10T12:22:52;11.60;;;9.05;;
25153;SDS011;47555;51.038;6.280;2023-06-10T12:25:23;10.43;;;9.40;;
25153;SDS011;47555;51.038;6.280;2023-06-10T12:27:51;11.05;;;9.35;;
25153;SDS011;47555;51.038;6.280;2023-06-10T12:30:21;10.75;;;9.48;;
25153;SDS011;47555;51.038;6.280;2023-06-10T12:32:47;9.95;;;8.95;;
25153;SDS011;47555;51.038;6.280;2023-06-10T12:35:16;10.80;;;9.70;;
25153;SDS011;47555;51.038;6.280;2023-06-10T12:37:42;14.30;;;8.95;;
25153;SDS011;47555;51.038;6.280;2023-06-10T12:40:09;10.90;;;9.65;;
25153;SDS011;47555;51.038;6.280;2023-06-10T12:42:35;9.77;;;8.90;;
25153;SDS011;47555;51.038;6.280;2023-06-10T12:45:02;9.73;;;8.73;;
25153;SDS011;47555;51.038;6.280;2023-06-10T12:47:32;11.15;;;9.40;;
25153;SDS011;47555;51.038;6.280;2023-06-10T12:50:00;10.80;;;9.50;;
25153;SDS011;47555;51.038;6.280;2023-06-10T12:52:26;9.52;;;8.57;;
25153;SDS011;47555;51.038;6.280;2023-06-10T12:54:53;10.07;;;9.18;;
25153;SDS011;47555;51.038;6.280;2023-06-10T12:57:19;9.82;;;8.93;;
25153;SDS011;47555;51.038;6.280;2023-06-10T12:59:46;10.65;;;9.48;;
25153;SDS011;47555;51.038;6.280;2023-06-10T13:02:17;9.98;;;9.02;;
25153;SDS011;47555;51.038;6.280;2023-06-10T13:04:44;9.43;;;8.55;;
25153;SDS011;47555;51.038;6.280;2023-06-10T13:07:10;9.50;;;8.70;;
25153;SDS011;47555;51.038;6.280;2023-06-10T13:09:36;10.10;;;8.90;;
25153;SDS011;47555;51.038;6.280;2023-06-10T13:12:02;11.02;;;9.25;;
25153;SDS011;47555;51.038;6.280;2023-06-10T13:14:28;10.10;;;9.10;;
25153;SDS011;47555;51.038;6.280;2023-06-10T13:16:54;10.50;;;9.38;;
25153;SDS011;47555;51.038;6.280;2023-06-10T13:19:21;14.15;;;9.43;;
25153;SDS011;47555;51.038;6.280;2023-06-10T13:21:47;12.90;;;9.98;;
25153;SDS011;47555;51.038;6.280;2023-06-10T13:24:13;10.02;;;8.93;;
25153;SDS011;47555;51.038;6.280;2023-06-10T13:26:39;10.60;;;9.70;;
25153;SDS011;47555;51.038;6.280;2023-06-10T13:29:05;11.75;;;9.20;;
25153;SDS011;47555;51.038;6.280;2023-06-10T13:31:33;9.90;;;9.05;;
25153;SDS011;47555;51.038;6.280;2023-06-10T13:33:58;11.77;;;8.98;;
25153;SDS011;47555;51.038;6.280;2023-06-10T13:36:24;11.20;;;9.75;;
25153;SDS011;47555;51.038;6.280;2023-06-10T13:38:50;10.90;;;9.45;;
25153;SDS011;47555;51.038;6.280;2023-06-10T13:41:16;9.75;;;8.82;;
25153;SDS011;47555;51.038;6.280;2023-06-10T13:43:42;10.00;;;8.98;;
25153;SDS011;47555;51.038;6.280;2023-06-10T13:46:08;10.23;;;8.65;;
25153;SDS011;47555;51.038;6.280;2023-06-10T13:48:34;9.65;;;8.68;;
25153;SDS011;47555;51.038;6.280;2023-06-10T13:51:00;8.65;;;7.85;;
25153;SDS011;47555;51.038;6.280;2023-06-10T13:53:26;9.77;;;8.45;;
25153;SDS011;47555;51.038;6.280;2023-06-10T13:55:52;11.15;;;8.30;;
25153;SDS011;47555;51.038;6.280;2023-06-10T13:58:18;8.77;;;7.97;;
25153;SDS011;47555;51.038;6.280;2023-06-10T14:00:44;11.30;;;8.20;;
25153;SDS011;47555;51.038;6.280;2023-06-10T14:03:10;13.77;;;8.75;;
25153;SDS011;47555;51.038;6.280;2023-06-10T14:05:36;8.65;;;7.80;;
25153;SDS011;47555;51.038;6.280;2023-06-10T14:08:02;8.40;;;7.70;;
25153;SDS011;47555;51.038;6.280;2023-06-10T14:10:29;9.45;;;8.55;;
25153;SDS011;47555;51.038;6.280;2023-06-10T14:12:55;8.48;;;7.68;;
25153;SDS011;47555;51.038;6.280;2023-06-10T14:15:21;9.27;;;8.15;;
25153;SDS011;47555;51.038;6.280;2023-06-10T14:17:46;10.23;;;9.02;;
25153;SDS011;47555;51.038;6.280;2023-06-10T14:20:12;8.95;;;8.10;;
25153;SDS011;47555;51.038;6.280;2023-06-10T14:22:38;9.57;;;8.55;;
25153;SDS011;47555;51.038;6.280;2023-06-10T14:25:05;9.65;;;8.65;;
25153;SDS011;47555;51.038;6.280;2023-06-10T14:27:31;9.52;;;8.68;;
25153;SDS011;47555;51.038;6.280;2023-06-10T14:29:57;9.25;;;8.20;;
25153;SDS011;47555;51.038;6.280;2023-06-10T14:32:23;9.38;;;8.45;;
25153;SDS011;47555;51.038;6.280;2023-06-10T14:34:49;9.70;;;8.50;;
25153;SDS011;47555;51.038;6.280;2023-06-10T14:37:15;8.95;;;8.15;;
25153;SDS011;47555;51.038;6.280;2023-06-10T14:39:41;10.68;;;8.10;;